RYR1426 EKCH-ESSA
Flight info
| Callsign | RYR1426 |
|---|---|
| Flight time | 1h 1m |
| Altitude | 35000 |
| Route | KEMAX DCT RASMU DCT DETSO N873 ARS T317 ELTOK |
| Aircraft | B738/M-SDE2E3FGHIRWXY/LB1 |
Departure
| Time | 2026-05-05 12:47 |
|---|---|
| Airport | Copenhagen Kastrup Airport (EKCH) |
Arrival
| Time | 2026-05-05 13:48 |
|---|---|
| Airport | Stockholm-Arlanda Airport (ESSA) |
| Time | Latitude | Longitude | Altitude | Speed | Heading |
|---|---|---|---|---|---|
| 2026-05-05 11:44 | 55.62581 | 12.64564 | 23 ft | 0 kts | 344° |
| 2026-05-05 12:29 | 55.62572 | 12.64568 | 24 ft | 4 kts | 343° |
| 2026-05-05 12:30 | 55.62546 | 12.64582 | 23 ft | 4 kts | 341° |
| 2026-05-05 12:30 | 55.62521 | 12.64599 | 25 ft | 4 kts | 337° |
| 2026-05-05 12:30 | 55.62497 | 12.64620 | 24 ft | 4 kts | 324° |
| 2026-05-05 12:30 | 55.62481 | 12.64649 | 23 ft | 4 kts | 273° |
| 2026-05-05 12:31 | 55.62482 | 12.64662 | 23 ft | 1 kts | 226° |
| 2026-05-05 12:38 | 55.62481 | 12.64662 | 23 ft | 0 kts | 225° |
| 2026-05-05 12:38 | 55.62477 | 12.64663 | 23 ft | 1 kts | 176° |
| 2026-05-05 12:38 | 55.62458 | 12.64669 | 25 ft | 5 kts | 171° |
| 2026-05-05 12:38 | 55.62406 | 12.64677 | 24 ft | 10 kts | 176° |
| 2026-05-05 12:39 | 55.62335 | 12.64701 | 25 ft | 11 kts | 141° |
| 2026-05-05 12:39 | 55.62280 | 12.64788 | 23 ft | 11 kts | 158° |
| 2026-05-05 12:39 | 55.62210 | 12.64771 | 23 ft | 10 kts | 204° |
| 2026-05-05 12:39 | 55.62151 | 12.64702 | 25 ft | 10 kts | 214° |
| 2026-05-05 12:40 | 55.62095 | 12.64636 | 26 ft | 10 kts | 212° |
| 2026-05-05 12:40 | 55.62036 | 12.64570 | 24 ft | 10 kts | 212° |
| 2026-05-05 12:40 | 55.61977 | 12.64514 | 23 ft | 10 kts | 196° |
| 2026-05-05 12:40 | 55.61905 | 12.64509 | 23 ft | 11 kts | 169° |
| 2026-05-05 12:41 | 55.61820 | 12.64536 | 26 ft | 13 kts | 169° |
| 2026-05-05 12:41 | 55.61723 | 12.64567 | 23 ft | 15 kts | 169° |
| 2026-05-05 12:41 | 55.61624 | 12.64508 | 24 ft | 16 kts | 212° |
| 2026-05-05 12:41 | 55.61527 | 12.64394 | 25 ft | 17 kts | 213° |
| 2026-05-05 12:42 | 55.61421 | 12.64272 | 25 ft | 19 kts | 212° |
| 2026-05-05 12:42 | 55.61306 | 12.64140 | 26 ft | 21 kts | 213° |
| 2026-05-05 12:42 | 55.61173 | 12.63987 | 25 ft | 24 kts | 214° |
| 2026-05-05 12:42 | 55.61023 | 12.63813 | 23 ft | 27 kts | 213° |
| 2026-05-05 12:43 | 55.60862 | 12.63628 | 24 ft | 29 kts | 212° |
| 2026-05-05 12:43 | 55.60690 | 12.63432 | 23 ft | 29 kts | 216° |
| 2026-05-05 12:43 | 55.60577 | 12.63270 | 23 ft | 13 kts | 221° |
| 2026-05-05 12:43 | 55.60521 | 12.63187 | 23 ft | 9 kts | 220° |
| 2026-05-05 12:44 | 55.60475 | 12.63123 | 23 ft | 8 kts | 208° |
| 2026-05-05 12:44 | 55.60421 | 12.63136 | 24 ft | 8 kts | 147° |
| 2026-05-05 12:44 | 55.60405 | 12.63163 | 23 ft | 0 kts | 130° |
| 2026-05-05 12:45 | 55.60398 | 12.63179 | 23 ft | 3 kts | 130° |
| 2026-05-05 12:45 | 55.60371 | 12.63232 | 23 ft | 8 kts | 132° |
| 2026-05-05 12:45 | 55.60337 | 12.63304 | 26 ft | 5 kts | 126° |
| 2026-05-05 12:45 | 55.60349 | 12.63360 | 28 ft | 6 kts | 41° |
| 2026-05-05 12:46 | 55.60353 | 12.63365 | 28 ft | 1 kts | 39° |
| 2026-05-05 12:46 | 55.60387 | 12.63415 | 24 ft | 14 kts | 40° |
| 2026-05-05 12:46 | 55.60650 | 12.63824 | 28 ft | 87 kts | 41° |
| 2026-05-05 12:46 | 55.61266 | 12.64771 | 29 ft | 148 kts | 39° |
| 2026-05-05 12:47 | 55.62113 | 12.66114 | 457 ft | 168 kts | 40° |
| 2026-05-05 12:47 | 55.62961 | 12.67438 | 1581 ft | 156 kts | 37° |
| 2026-05-05 12:47 | 55.63818 | 12.68764 | 2216 ft | 175 kts | 38° |
| 2026-05-05 12:47 | 55.64792 | 12.70244 | 2830 ft | 188 kts | 38° |
| 2026-05-05 12:48 | 55.65777 | 12.71708 | 3728 ft | 188 kts | 38° |
| 2026-05-05 12:48 | 55.66788 | 12.73272 | 4363 ft | 197 kts | 38° |
| 2026-05-05 12:48 | 55.67823 | 12.74886 | 5041 ft | 197 kts | 38° |
| 2026-05-05 12:48 | 55.68870 | 12.76534 | 5557 ft | 212 kts | 38° |
| 2026-05-05 12:49 | 55.70018 | 12.78340 | 5925 ft | 229 kts | 38° |
| 2026-05-05 12:49 | 55.71251 | 12.80267 | 6374 ft | 244 kts | 38° |
| 2026-05-05 12:49 | 55.72609 | 12.82348 | 6648 ft | 270 kts | 38° |
| 2026-05-05 12:49 | 55.74060 | 12.84587 | 7283 ft | 281 kts | 38° |
| 2026-05-05 12:50 | 55.75602 | 12.86767 | 8008 ft | 286 kts | 28° |
| 2026-05-05 12:50 | 55.77372 | 12.88421 | 8788 ft | 289 kts | 21° |
| 2026-05-05 12:50 | 55.79203 | 12.89875 | 9545 ft | 295 kts | 19° |
| 2026-05-05 12:50 | 55.81109 | 12.91340 | 10264 ft | 301 kts | 19° |
| 2026-05-05 12:51 | 55.83040 | 12.92833 | 11021 ft | 305 kts | 19° |
| 2026-05-05 12:51 | 55.85000 | 12.94371 | 11755 ft | 310 kts | 19° |
| 2026-05-05 12:51 | 55.86985 | 12.95951 | 12509 ft | 315 kts | 19° |
| 2026-05-05 12:51 | 55.88999 | 12.97572 | 13258 ft | 319 kts | 19° |
| 2026-05-05 12:52 | 55.91039 | 12.99229 | 13985 ft | 324 kts | 19° |
| 2026-05-05 12:52 | 55.93105 | 13.00919 | 14646 ft | 329 kts | 19° |
| 2026-05-05 12:52 | 55.95196 | 13.02639 | 15329 ft | 332 kts | 19° |
| 2026-05-05 12:52 | 55.97309 | 13.04382 | 16001 ft | 337 kts | 20° |
| 2026-05-05 12:53 | 55.99448 | 13.06149 | 16654 ft | 341 kts | 20° |
| 2026-05-05 12:53 | 56.01617 | 13.07948 | 17325 ft | 345 kts | 20° |
| 2026-05-05 12:53 | 56.03789 | 13.09752 | 17990 ft | 350 kts | 20° |
| 2026-05-05 12:53 | 56.06037 | 13.11623 | 18610 ft | 353 kts | 20° |
| 2026-05-05 12:54 | 56.10507 | 13.15352 | 19814 ft | 359 kts | 20° |
| 2026-05-05 12:54 | 56.12781 | 13.17253 | 20407 ft | 362 kts | 20° |
| 2026-05-05 12:54 | 56.15074 | 13.19172 | 20993 ft | 365 kts | 20° |
| 2026-05-05 12:55 | 56.17394 | 13.21115 | 21577 ft | 368 kts | 20° |
| 2026-05-05 12:55 | 56.19734 | 13.23079 | 22154 ft | 372 kts | 20° |
| 2026-05-05 12:55 | 56.22061 | 13.25033 | 22703 ft | 375 kts | 20° |
| 2026-05-05 12:55 | 56.24438 | 13.27033 | 23275 ft | 379 kts | 20° |
| 2026-05-05 12:56 | 56.26833 | 13.29050 | 23768 ft | 382 kts | 20° |
| 2026-05-05 12:56 | 56.29250 | 13.31089 | 24236 ft | 385 kts | 20° |
| 2026-05-05 12:56 | 56.31682 | 13.33144 | 24705 ft | 388 kts | 20° |
| 2026-05-05 12:56 | 56.34145 | 13.35228 | 25176 ft | 390 kts | 20° |
| 2026-05-05 12:57 | 56.36610 | 13.37317 | 25619 ft | 393 kts | 20° |
| 2026-05-05 12:57 | 56.39102 | 13.39431 | 26061 ft | 396 kts | 20° |
| 2026-05-05 12:57 | 56.41576 | 13.41534 | 26514 ft | 398 kts | 20° |
| 2026-05-05 12:57 | 56.44082 | 13.43668 | 27066 ft | 397 kts | 20° |
| 2026-05-05 12:58 | 56.46576 | 13.45796 | 27654 ft | 395 kts | 20° |
| 2026-05-05 12:58 | 56.49064 | 13.47922 | 28194 ft | 395 kts | 20° |
| 2026-05-05 12:58 | 56.51546 | 13.50045 | 28722 ft | 394 kts | 20° |
| 2026-05-05 12:58 | 56.54026 | 13.52169 | 29249 ft | 393 kts | 20° |
| 2026-05-05 12:59 | 56.56495 | 13.54285 | 29763 ft | 393 kts | 20° |
| 2026-05-05 12:59 | 56.58964 | 13.56405 | 30215 ft | 392 kts | 20° |
| 2026-05-05 12:59 | 56.61426 | 13.58521 | 30631 ft | 391 kts | 20° |
| 2026-05-05 13:00 | 56.66335 | 13.62750 | 31414 ft | 390 kts | 19° |
| 2026-05-05 13:00 | 56.68782 | 13.64862 | 31799 ft | 389 kts | 19° |
| 2026-05-05 13:01 | 56.76171 | 13.71248 | 32342 ft | 404 kts | 19° |
| 2026-05-05 13:01 | 56.78730 | 13.73463 | 32430 ft | 411 kts | 19° |
| 2026-05-05 13:01 | 56.84000 | 13.78043 | 32582 ft | 426 kts | 20° |
| 2026-05-05 13:02 | 56.89452 | 13.82801 | 32734 ft | 441 kts | 20° |
| 2026-05-05 13:02 | 56.95085 | 13.87738 | 32856 ft | 455 kts | 20° |
| 2026-05-05 13:03 | 57.00878 | 13.92832 | 33010 ft | 467 kts | 20° |
| 2026-05-05 13:03 | 57.03827 | 13.95434 | 33201 ft | 471 kts | 20° |
| 2026-05-05 13:03 | 57.06751 | 13.98021 | 33522 ft | 470 kts | 20° |
| 2026-05-05 13:04 | 57.09690 | 14.00628 | 33907 ft | 468 kts | 20° |
| 2026-05-05 13:04 | 57.12628 | 14.03237 | 34197 ft | 467 kts | 20° |
| 2026-05-05 13:04 | 57.15565 | 14.05848 | 34417 ft | 468 kts | 20° |
| 2026-05-05 13:04 | 57.18500 | 14.08457 | 34646 ft | 469 kts | 20° |
| 2026-05-05 13:05 | 57.21435 | 14.11071 | 34877 ft | 469 kts | 20° |
| 2026-05-05 13:05 | 57.24382 | 14.13698 | 34871 ft | 473 kts | 20° |
| 2026-05-05 13:05 | 57.30290 | 14.18983 | 34882 ft | 474 kts | 20° |
| 2026-05-05 13:06 | 57.36175 | 14.24275 | 34879 ft | 468 kts | 20° |
| 2026-05-05 13:06 | 57.42028 | 14.29551 | 34898 ft | 467 kts | 20° |
| 2026-05-05 13:07 | 57.47885 | 14.34845 | 34897 ft | 468 kts | 20° |
| 2026-05-05 13:07 | 57.53741 | 14.40159 | 34902 ft | 469 kts | 20° |
| 2026-05-05 13:08 | 57.59619 | 14.45512 | 34895 ft | 470 kts | 20° |
| 2026-05-05 13:08 | 57.65498 | 14.50887 | 34898 ft | 471 kts | 20° |
| 2026-05-05 13:09 | 57.71359 | 14.56265 | 34895 ft | 472 kts | 20° |
| 2026-05-05 13:09 | 57.77263 | 14.61702 | 34900 ft | 473 kts | 20° |
| 2026-05-05 13:10 | 57.83168 | 14.67160 | 34902 ft | 474 kts | 20° |
| 2026-05-05 13:10 | 57.89080 | 14.72646 | 34899 ft | 474 kts | 20° |
| 2026-05-05 13:11 | 57.95007 | 14.78165 | 34899 ft | 474 kts | 20° |
| 2026-05-05 13:11 | 58.00936 | 14.83707 | 34904 ft | 475 kts | 20° |
| 2026-05-05 13:12 | 58.06852 | 14.89257 | 34913 ft | 475 kts | 20° |
| 2026-05-05 13:12 | 58.12734 | 14.94796 | 34903 ft | 475 kts | 20° |
| 2026-05-05 13:13 | 58.18642 | 15.00380 | 34910 ft | 474 kts | 20° |
| 2026-05-05 13:13 | 58.24547 | 15.05982 | 34905 ft | 474 kts | 20° |
| 2026-05-05 13:14 | 58.30452 | 15.11604 | 34898 ft | 474 kts | 20° |
| 2026-05-05 13:14 | 58.36284 | 15.17189 | 34877 ft | 461 kts | 20° |
| 2026-05-05 13:15 | 58.41955 | 15.22844 | 34888 ft | 461 kts | 24° |
| 2026-05-05 13:15 | 58.47336 | 15.29254 | 34869 ft | 450 kts | 26° |
| 2026-05-05 13:16 | 58.49924 | 15.32475 | 34868 ft | 439 kts | 26° |
| 2026-05-05 13:16 | 58.52478 | 15.35641 | 34880 ft | 435 kts | 26° |
| 2026-05-05 13:16 | 58.57624 | 15.41914 | 34913 ft | 442 kts | 25° |
| 2026-05-05 13:17 | 58.62881 | 15.48263 | 34892 ft | 449 kts | 25° |
| 2026-05-05 13:17 | 58.68165 | 15.54664 | 34648 ft | 445 kts | 25° |
| 2026-05-05 13:18 | 58.70767 | 15.57821 | 34042 ft | 450 kts | 24° |
| 2026-05-05 13:18 | 58.73441 | 15.61060 | 33256 ft | 458 kts | 25° |
| 2026-05-05 13:18 | 58.76139 | 15.64339 | 32725 ft | 458 kts | 25° |
| 2026-05-05 13:18 | 58.78821 | 15.67617 | 32377 ft | 454 kts | 25° |
| 2026-05-05 13:19 | 58.81483 | 15.70882 | 32035 ft | 450 kts | 25° |
| 2026-05-05 13:19 | 58.84113 | 15.74112 | 31663 ft | 448 kts | 25° |
| 2026-05-05 13:19 | 58.86741 | 15.77342 | 31259 ft | 446 kts | 25° |
| 2026-05-05 13:19 | 58.89356 | 15.80557 | 30865 ft | 444 kts | 25° |
| 2026-05-05 13:20 | 58.91965 | 15.83772 | 30491 ft | 442 kts | 25° |
| 2026-05-05 13:20 | 58.94551 | 15.86963 | 30127 ft | 440 kts | 25° |
| 2026-05-05 13:20 | 58.97128 | 15.90149 | 29722 ft | 438 kts | 25° |
| 2026-05-05 13:20 | 58.99691 | 15.93324 | 29304 ft | 436 kts | 25° |
| 2026-05-05 13:21 | 59.02209 | 15.96450 | 28914 ft | 433 kts | 25° |
| 2026-05-05 13:21 | 59.03921 | 15.98578 | 28643 ft | 431 kts | 25° |
| 2026-05-05 13:21 | 59.06442 | 16.01715 | 28242 ft | 429 kts | 25° |
| 2026-05-05 13:21 | 59.09755 | 16.05848 | 27715 ft | 426 kts | 25° |
| 2026-05-05 13:22 | 59.11405 | 16.07909 | 27467 ft | 424 kts | 25° |
| 2026-05-05 13:22 | 59.13882 | 16.11008 | 27096 ft | 422 kts | 25° |
| 2026-05-05 13:22 | 59.16347 | 16.14097 | 26724 ft | 419 kts | 25° |
| 2026-05-05 13:22 | 59.18795 | 16.17171 | 26347 ft | 417 kts | 24° |
| 2026-05-05 13:23 | 59.21227 | 16.20229 | 25988 ft | 415 kts | 24° |
| 2026-05-05 13:23 | 59.23649 | 16.23280 | 25635 ft | 413 kts | 24° |
| 2026-05-05 13:23 | 59.26052 | 16.26313 | 25274 ft | 411 kts | 24° |
| 2026-05-05 13:23 | 59.28455 | 16.29350 | 24919 ft | 409 kts | 24° |
| 2026-05-05 13:24 | 59.30837 | 16.32364 | 24577 ft | 407 kts | 24° |
| 2026-05-05 13:24 | 59.33211 | 16.35375 | 24251 ft | 405 kts | 24° |
| 2026-05-05 13:24 | 59.35571 | 16.38374 | 23923 ft | 403 kts | 24° |
| 2026-05-05 13:24 | 59.37916 | 16.41359 | 23598 ft | 401 kts | 24° |
| 2026-05-05 13:25 | 59.40255 | 16.44342 | 23206 ft | 398 kts | 24° |
| 2026-05-05 13:25 | 59.42563 | 16.47293 | 22669 ft | 394 kts | 24° |
| 2026-05-05 13:25 | 59.44865 | 16.50236 | 22021 ft | 393 kts | 24° |
| 2026-05-05 13:25 | 59.47121 | 16.53124 | 21441 ft | 392 kts | 24° |
| 2026-05-05 13:26 | 59.49400 | 16.56047 | 20893 ft | 389 kts | 24° |
| 2026-05-05 13:26 | 59.51662 | 16.58955 | 20368 ft | 386 kts | 24° |
| 2026-05-05 13:26 | 59.53901 | 16.61850 | 19843 ft | 385 kts | 27° |
| 2026-05-05 13:26 | 59.55874 | 16.65552 | 19262 ft | 400 kts | 50° |
| 2026-05-05 13:27 | 59.57231 | 16.70356 | 18772 ft | 402 kts | 64° |
| 2026-05-05 13:27 | 59.58324 | 16.75409 | 18321 ft | 399 kts | 66° |
| 2026-05-05 13:27 | 59.59372 | 16.80479 | 17792 ft | 397 kts | 66° |
| 2026-05-05 13:27 | 59.60395 | 16.85491 | 17363 ft | 391 kts | 67° |
| 2026-05-05 13:28 | 59.61394 | 16.90426 | 16958 ft | 384 kts | 67° |
| 2026-05-05 13:28 | 59.62373 | 16.95295 | 16530 ft | 378 kts | 67° |
| 2026-05-05 13:28 | 59.63332 | 17.00097 | 16115 ft | 373 kts | 67° |
| 2026-05-05 13:28 | 59.64272 | 17.04837 | 15708 ft | 367 kts | 67° |
| 2026-05-05 13:29 | 59.65191 | 17.09499 | 15310 ft | 361 kts | 67° |
| 2026-05-05 13:29 | 59.66093 | 17.14103 | 14914 ft | 356 kts | 67° |
| 2026-05-05 13:29 | 59.66976 | 17.18637 | 14511 ft | 350 kts | 67° |
| 2026-05-05 13:29 | 59.67843 | 17.23110 | 14138 ft | 345 kts | 67° |
| 2026-05-05 13:30 | 59.68691 | 17.27519 | 13744 ft | 340 kts | 67° |
| 2026-05-05 13:30 | 59.69511 | 17.31800 | 13346 ft | 334 kts | 67° |
| 2026-05-05 13:30 | 59.70328 | 17.36067 | 12917 ft | 329 kts | 67° |
| 2026-05-05 13:30 | 59.71136 | 17.40273 | 12505 ft | 323 kts | 67° |
| 2026-05-05 13:31 | 59.71930 | 17.44394 | 12086 ft | 319 kts | 67° |
| 2026-05-05 13:31 | 59.72719 | 17.48464 | 11686 ft | 313 kts | 68° |
| 2026-05-05 13:31 | 59.73497 | 17.52462 | 11286 ft | 308 kts | 67° |
| 2026-05-05 13:31 | 59.74268 | 17.56397 | 10875 ft | 303 kts | 67° |
| 2026-05-05 13:32 | 59.75030 | 17.60271 | 10495 ft | 298 kts | 67° |
| 2026-05-05 13:32 | 59.75766 | 17.64003 | 10111 ft | 293 kts | 68° |
| 2026-05-05 13:32 | 59.77197 | 17.71236 | 9341 ft | 284 kts | 67° |
| 2026-05-05 13:33 | 59.77904 | 17.74809 | 9103 ft | 273 kts | 67° |
| 2026-05-05 13:33 | 59.78588 | 17.78281 | 8871 ft | 264 kts | 67° |
| 2026-05-05 13:33 | 59.79198 | 17.81636 | 8615 ft | 256 kts | 72° |
| 2026-05-05 13:33 | 59.79824 | 17.84880 | 8360 ft | 249 kts | 67° |
| 2026-05-05 13:34 | 59.80454 | 17.88055 | 8053 ft | 245 kts | 67° |
| 2026-05-05 13:34 | 59.81072 | 17.91212 | 7680 ft | 245 kts | 67° |
| 2026-05-05 13:34 | 59.81671 | 17.94362 | 7306 ft | 243 kts | 69° |
| 2026-05-05 13:34 | 59.81910 | 17.97665 | 6907 ft | 244 kts | 99° |
| 2026-05-05 13:35 | 59.81284 | 18.00732 | 6454 ft | 243 kts | 130° |
| 2026-05-05 13:35 | 59.79975 | 18.02956 | 5684 ft | 254 kts | 150° |
| 2026-05-05 13:35 | 59.78449 | 18.04593 | 5460 ft | 241 kts | 167° |
| 2026-05-05 13:35 | 59.76835 | 18.04836 | 4841 ft | 238 kts | 194° |
| 2026-05-05 13:36 | 59.75311 | 18.03382 | 3784 ft | 256 kts | 224° |
| 2026-05-05 13:36 | 59.74157 | 18.00568 | 2761 ft | 273 kts | 233° |
| 2026-05-05 13:36 | 59.72570 | 17.98350 | 1875 ft | 288 kts | 197° |
| 2026-05-05 13:36 | 59.70603 | 17.97858 | 1367 ft | 283 kts | 186° |
| 2026-05-05 13:37 | 59.68721 | 17.97323 | 1059 ft | 261 kts | 195° |
| 2026-05-05 13:37 | 59.67107 | 17.96608 | 1447 ft | 217 kts | 194° |
| 2026-05-05 13:37 | 59.65713 | 17.96111 | 1459 ft | 196 kts | 192° |
| 2026-05-05 13:37 | 59.64398 | 17.95741 | 1340 ft | 185 kts | 188° |
| 2026-05-05 13:38 | 59.63154 | 17.95928 | 1327 ft | 173 kts | 168° |
| 2026-05-05 13:38 | 59.62058 | 17.97038 | 1072 ft | 188 kts | 145° |
| 2026-05-05 13:38 | 59.61099 | 17.99061 | 844 ft | 218 kts | 114° |
| 2026-05-05 13:38 | 59.60880 | 18.02001 | 1243 ft | 226 kts | 80° |
| 2026-05-05 13:39 | 59.61459 | 18.04816 | 1745 ft | 221 kts | 56° |
| 2026-05-05 13:39 | 59.62578 | 18.06972 | 2148 ft | 225 kts | 30° |
| 2026-05-05 13:39 | 59.63907 | 18.08633 | 2675 ft | 229 kts | 28° |
| 2026-05-05 13:39 | 59.65286 | 18.10303 | 3147 ft | 236 kts | 27° |
| 2026-05-05 13:40 | 59.66690 | 18.11993 | 3403 ft | 235 kts | 27° |
| 2026-05-05 13:40 | 59.68084 | 18.13670 | 3669 ft | 233 kts | 28° |
| 2026-05-05 13:40 | 59.69485 | 18.15253 | 3959 ft | 232 kts | 17° |
| 2026-05-05 13:40 | 59.71061 | 18.16039 | 3969 ft | 234 kts | 8° |
| 2026-05-05 13:41 | 59.72647 | 18.16689 | 4047 ft | 234 kts | 8° |
| 2026-05-05 13:41 | 59.74257 | 18.17337 | 4036 ft | 235 kts | 7° |
| 2026-05-05 13:41 | 59.75846 | 18.17949 | 3987 ft | 228 kts | 7° |
| 2026-05-05 13:41 | 59.77366 | 18.18550 | 3994 ft | 219 kts | 7° |
| 2026-05-05 13:42 | 59.78863 | 18.19131 | 3745 ft | 227 kts | 7° |
| 2026-05-05 13:42 | 59.80411 | 18.19664 | 3459 ft | 222 kts | 358° |
| 2026-05-05 13:42 | 59.81845 | 18.18954 | 3175 ft | 208 kts | 323° |
| 2026-05-05 13:42 | 59.82734 | 18.16837 | 2902 ft | 198 kts | 289° |
| 2026-05-05 13:43 | 59.83015 | 18.14216 | 2646 ft | 192 kts | 278° |
| 2026-05-05 13:43 | 59.83182 | 18.11640 | 2535 ft | 181 kts | 272° |
| 2026-05-05 13:43 | 59.82854 | 18.09359 | 2497 ft | 171 kts | 234° |
| 2026-05-05 13:43 | 59.82006 | 18.07707 | 2509 ft | 171 kts | 227° |
| 2026-05-05 13:44 | 59.81143 | 18.06071 | 2502 ft | 171 kts | 227° |
| 2026-05-05 13:44 | 59.80293 | 18.04421 | 2516 ft | 177 kts | 228° |
| 2026-05-05 13:44 | 59.79410 | 18.02753 | 2467 ft | 170 kts | 227° |
| 2026-05-05 13:44 | 59.78485 | 18.01389 | 2466 ft | 169 kts | 202° |
| 2026-05-05 13:45 | 59.77315 | 18.00826 | 2494 ft | 178 kts | 200° |
| 2026-05-05 13:45 | 59.76137 | 18.00095 | 2472 ft | 182 kts | 202° |
| 2026-05-05 13:45 | 59.74880 | 17.99593 | 2242 ft | 178 kts | 192° |
| 2026-05-05 13:45 | 59.73660 | 17.99115 | 1943 ft | 178 kts | 196° |
| 2026-05-05 13:46 | 59.72495 | 17.98658 | 1735 ft | 164 kts | 196° |
| 2026-05-05 13:46 | 59.71402 | 17.98213 | 1534 ft | 159 kts | 197° |
| 2026-05-05 13:46 | 59.70325 | 17.97855 | 1346 ft | 155 kts | 194° |
| 2026-05-05 13:46 | 59.69248 | 17.97468 | 1093 ft | 157 kts | 194° |
| 2026-05-05 13:47 | 59.68206 | 17.97097 | 841 ft | 151 kts | 195° |
| 2026-05-05 13:47 | 59.67171 | 17.96709 | 677 ft | 153 kts | 194° |
| 2026-05-05 13:47 | 59.66104 | 17.96334 | 467 ft | 158 kts | 197° |
| 2026-05-05 13:47 | 59.65034 | 17.95939 | 224 ft | 154 kts | 194° |
| 2026-05-05 13:48 | 59.64031 | 17.95585 | 119 ft | 136 kts | 193° |
| 2026-05-05 13:48 | 59.63302 | 17.95314 | 132 ft | 76 kts | 191° |
| 2026-05-05 13:48 | 59.63002 | 17.95150 | 140 ft | 14 kts | 217° |
| 2026-05-05 13:48 | 59.62923 | 17.95028 | 141 ft | 14 kts | 220° |
| 2026-05-05 13:49 | 59.62858 | 17.94909 | 142 ft | 0 kts | 229° |
| 2026-05-05 13:50 | 59.62857 | 17.94906 | 142 ft | 1 kts | 230° |
| 2026-05-05 13:50 | 59.62848 | 17.94871 | 142 ft | 4 kts | 250° |
| 2026-05-05 13:50 | 59.62856 | 17.94794 | 141 ft | 7 kts | 301° |
| 2026-05-05 13:51 | 59.62914 | 17.94765 | 140 ft | 11 kts | 7° |
| 2026-05-05 13:51 | 59.63003 | 17.94799 | 139 ft | 15 kts | 13° |
| 2026-05-05 13:51 | 59.63121 | 17.94841 | 137 ft | 19 kts | 9° |
| 2026-05-05 13:51 | 59.63253 | 17.94884 | 134 ft | 20 kts | 12° |
| 2026-05-05 13:52 | 59.63386 | 17.94938 | 132 ft | 19 kts | 11° |
| 2026-05-05 13:52 | 59.63512 | 17.94983 | 130 ft | 18 kts | 9° |
| 2026-05-05 13:52 | 59.63635 | 17.95024 | 126 ft | 18 kts | 9° |
| 2026-05-05 13:52 | 59.63754 | 17.95068 | 126 ft | 17 kts | 11° |
| 2026-05-05 13:53 | 59.63868 | 17.95111 | 123 ft | 16 kts | 11° |
| 2026-05-05 13:53 | 59.63979 | 17.95152 | 120 ft | 16 kts | 11° |
| 2026-05-05 13:53 | 59.64085 | 17.95191 | 119 ft | 15 kts | 10° |
| 2026-05-05 13:53 | 59.64187 | 17.95228 | 119 ft | 15 kts | 10° |
| 2026-05-05 13:54 | 59.64284 | 17.95263 | 113 ft | 14 kts | 10° |
| 2026-05-05 13:54 | 59.64377 | 17.95296 | 115 ft | 13 kts | 10° |
| 2026-05-05 13:54 | 59.64467 | 17.95327 | 114 ft | 13 kts | 9° |
| 2026-05-05 13:54 | 59.64541 | 17.95276 | 113 ft | 13 kts | 283° |
| 2026-05-05 13:55 | 59.64514 | 17.95117 | 113 ft | 12 kts | 239° |
| 2026-05-05 13:55 | 59.64467 | 17.94970 | 111 ft | 14 kts | 238° |
| 2026-05-05 13:55 | 59.64409 | 17.94791 | 116 ft | 17 kts | 238° |
| 2026-05-05 13:55 | 59.64341 | 17.94574 | 114 ft | 20 kts | 238° |
| 2026-05-05 13:56 | 59.64263 | 17.94328 | 117 ft | 23 kts | 238° |
| 2026-05-05 13:56 | 59.64175 | 17.94052 | 116 ft | 25 kts | 237° |
| 2026-05-05 13:56 | 59.64119 | 17.93880 | 118 ft | 0 kts | 237° |
| 2026-05-05 13:57 | 59.64118 | 17.93879 | 118 ft | 0 kts | 237° |
| 2026-05-05 13:57 | 59.64116 | 17.93871 | 118 ft | 1 kts | 237° |
| 2026-05-05 13:57 | 59.64110 | 17.93852 | 114 ft | 2 kts | 238° |
| 2026-05-05 13:57 | 59.64100 | 17.93821 | 118 ft | 3 kts | 237° |
| 2026-05-05 13:58 | 59.64086 | 17.93778 | 117 ft | 4 kts | 237° |
| 2026-05-05 13:58 | 59.64069 | 17.93724 | 115 ft | 5 kts | 237° |
| 2026-05-05 13:58 | 59.64048 | 17.93661 | 114 ft | 6 kts | 237° |
| 2026-05-05 13:58 | 59.64022 | 17.93581 | 115 ft | 8 kts | 238° |
| 2026-05-05 13:59 | 59.64002 | 17.93258 | 115 ft | 17 kts | 292° |
| 2026-05-05 13:59 | 59.64060 | 17.93029 | 114 ft | 21 kts | 297° |
| 2026-05-05 14:00 | 59.64204 | 17.92478 | 113 ft | 23 kts | 297° |
| 2026-05-05 14:00 | 59.64252 | 17.92292 | 112 ft | 22 kts | 297° |
| 2026-05-05 14:00 | 59.64332 | 17.91984 | 112 ft | 11 kts | 301° |
| 2026-05-05 14:00 | 59.64399 | 17.91925 | 112 ft | 11 kts | 9° |
| 2026-05-05 14:01 | 59.64475 | 17.91954 | 113 ft | 11 kts | 11° |
| 2026-05-05 14:01 | 59.64555 | 17.91983 | 113 ft | 13 kts | 10° |
| 2026-05-05 14:01 | 59.64648 | 17.92015 | 112 ft | 14 kts | 10° |
| 2026-05-05 14:01 | 59.64733 | 17.92064 | 113 ft | 12 kts | 41° |
| 2026-05-05 14:02 | 59.64735 | 17.92215 | 112 ft | 12 kts | 106° |
| 2026-05-05 14:02 | 59.64714 | 17.92363 | 114 ft | 10 kts | 106° |
| 2026-05-05 14:02 | 59.64705 | 17.92455 | 114 ft | 6 kts | 77° |
| 2026-05-05 14:02 | 59.64721 | 17.92496 | 114 ft | 3 kts | 39° |
| 2026-05-05 14:03 | 59.64736 | 17.92517 | 113 ft | 2 kts | 36° |
| 2026-05-05 14:03 | 59.64741 | 17.92524 | 114 ft | 0 kts | 37° |